Time;durP1;ratioP1;P1;durP2;ratioP2;P2;SDS_P1;SDS_P2;PMS_P1;PMS_P2;Temp;Humidity;BMP_temperature;BMP_pressure;BME280_temperature;BME280_humidity;BME280_pressure;Samples;Min_cycle;Max_cycle;Signal;HPM_P1;HPM_P2
2022/04/17 00:01:02;;;;;;;0.40;0.30;;;8.20;96.20;;;;;;5011630;28;20393;-68
2022/04/17 00:03:28;;;;;;;0.40;0.40;;;8.40;96.20;;;;;;5011454;28;20451;-67
2022/04/17 00:05:54;;;;;;;1.80;1.00;;;8.40;94.50;;;;;;5012210;28;20384;-68
2022/04/17 00:08:20;;;;;;;0.40;0.20;;;8.50;94.90;;;;;;5010919;28;20777;-68
2022/04/17 00:10:49;;;;;;;0.40;0.20;;;8.70;90.50;;;;;;5012565;28;20392;-67
2022/04/17 00:13:15;;;;;;;0.40;0.20;;;9.00;89.20;;;;;;5012463;28;20384;-67
2022/04/17 00:15:41;;;;;;;0.40;0.20;;;9.20;81.60;;;;;;5012483;28;20389;-67
2022/04/17 00:18:06;;;;;;;0.68;0.68;;;9.20;79.80;;;;;;5011283;28;20411;-68
2022/04/17 00:20:32;;;;;;;0.40;0.30;;;9.30;75.30;;;;;;5012354;28;20410;-68
2022/04/17 00:22:58;;;;;;;0.40;0.20;;;9.60;73.90;;;;;;5011957;28;20381;-69
2022/04/17 00:25:23;;;;;;;0.40;0.30;;;9.60;73.40;;;;;;5011750;28;20392;-67
2022/04/17 00:27:49;;;;;;;0.40;0.20;;;9.40;73.90;;;;;;5012102;28;20895;-68
2022/04/17 00:30:15;;;;;;;0.40;0.20;;;9.50;72.90;;;;;;5011252;28;20381;-68
2022/04/17 00:32:40;;;;;;;0.40;0.20;;;9.40;71.50;;;;;;5012523;28;20905;-68
2022/04/17 00:35:07;;;;;;;0.40;0.20;;;9.40;71.00;;;;;;5011535;28;20384;-68
2022/04/17 00:37:33;;;;;;;0.40;0.20;;;9.30;71.70;;;;;;5012192;28;20399;-67
2022/04/17 00:39:59;;;;;;;0.40;0.20;;;9.30;72.10;;;;;;5011410;28;21015;-68
2022/04/17 00:42:26;;;;;;;0.40;0.30;;;9.10;76.10;;;;;;5011154;28;20438;-68
2022/04/17 00:44:51;;;;;;;0.40;0.20;;;9.10;73.40;;;;;;5010759;28;20413;-67
2022/04/17 00:47:17;;;;;;;0.40;0.30;;;9.10;73.90;;;;;;5011164;28;20420;-68
2022/04/17 00:49:46;;;;;;;0.40;0.20;;;8.90;73.80;;;;;;5011900;28;20430;-68
2022/04/17 00:52:13;;;;;;;0.40;0.30;;;8.80;75.70;;;;;;5011727;28;20884;-67
2022/04/17 00:54:46;;;;;;;0.40;0.20;;;8.70;75.20;;;;;;5011223;28;20417;-67
2022/04/17 00:57:13;;;;;;;0.40;0.40;;;8.60;78.50;;;;;;5011730;28;20409;-67
2022/04/17 00:59:42;;;;;;;0.40;0.20;;;8.30;82.20;;;;;;5010802;28;20413;-67
2022/04/17 01:02:09;;;;;;;0.40;0.20;;;8.20;83.10;;;;;;5011613;28;20385;-67
2022/04/17 01:04:36;;;;;;;0.80;0.80;;;8.20;83.60;;;;;;5010788;28;20385;-68
2022/04/17 01:07:02;;;;;;;0.50;0.50;;;8.20;83.00;;;;;;5010684;28;20401;-67
2022/04/17 01:09:29;;;;;;;1.10;0.90;;;8.10;85.60;;;;;;5010942;28;20384;-68
2022/04/17 01:11:56;;;;;;;0.40;0.20;;;8.10;83.50;;;;;;5011891;28;20385;-68
2022/04/17 01:14:21;;;;;;;0.50;0.50;;;8.30;80.50;;;;;;5011500;28;20726;-67
2022/04/17 01:16:47;;;;;;;1.20;0.80;;;8.10;82.60;;;;;;5010483;28;20380;-67
2022/04/17 01:19:13;;;;;;;0.40;0.33;;;8.30;79.90;;;;;;5011309;28;20424;-67
2022/04/17 01:21:41;;;;;;;0.40;0.20;;;8.30;82.10;;;;;;5010688;28;20396;-68
2022/04/17 01:26:56;;;;;;;0.40;0.20;;;8.00;83.50;;;;;;5010548;28;20982;-67
2022/04/17 01:29:24;;;;;;;0.40;0.20;;;7.90;84.80;;;;;;5011126;28;20388;-67
2022/04/17 01:31:49;;;;;;;0.40;0.20;;;7.80;86.40;;;;;;5010429;28;20384;-67
2022/04/17 01:34:16;;;;;;;0.40;0.20;;;7.60;87.10;;;;;;5011184;28;20393;-67
2022/04/17 01:36:46;;;;;;;0.40;0.40;;;7.60;86.60;;;;;;5009889;28;20750;-67
2022/04/17 01:39:16;;;;;;;0.40;0.20;;;7.50;87.60;;;;;;5010630;28;20825;-68
2022/04/17 01:41:42;;;;;;;0.40;0.20;;;7.40;87.70;;;;;;5010829;28;21044;-67
2022/04/17 01:44:08;;;;;;;0.40;0.20;;;7.40;86.70;;;;;;5008980;28;20471;-68
2022/04/17 01:46:34;;;;;;;0.50;0.50;;;7.40;87.90;;;;;;5011028;28;20414;-68
2022/04/17 01:49:00;;;;;;;0.70;0.50;;;7.30;87.70;;;;;;5010254;28;20388;-68
2022/04/17 01:51:26;;;;;;;0.40;0.20;;;7.20;90.00;;;;;;5011194;28;20385;-67
2022/04/17 01:53:52;;;;;;;0.40;0.20;;;7.00;90.40;;;;;;5010995;28;20385;-67
2022/04/17 01:56:18;;;;;;;0.40;0.20;;;7.10;91.30;;;;;;5010330;28;20389;-68
2022/04/17 01:58:44;;;;;;;3.10;0.90;;;6.90;92.90;;;;;;5010812;28;20419;-67
2022/04/17 02:01:10;;;;;;;0.40;0.30;;;6.80;93.40;;;;;;5008879;28;20426;-67
2022/04/17 02:03:36;;;;;;;0.40;0.20;;;6.80;94.10;;;;;;5010739;28;20923;-67
2022/04/17 02:06:02;;;;;;;0.70;0.60;;;6.80;93.00;;;;;;5010674;28;20858;-67
2022/04/17 02:08:31;;;;;;;0.40;0.20;;;6.60;92.80;;;;;;5010332;28;20396;-68
2022/04/17 02:10:56;;;;;;;0.63;0.43;;;6.60;92.40;;;;;;5010953;28;20384;-67
2022/04/17 02:13:23;;;;;;;0.40;0.20;;;6.60;93.30;;;;;;5009732;28;20438;-68
2022/04/17 02:15:53;;;;;;;0.40;0.20;;;6.50;96.20;;;;;;5010792;28;20400;-67
2022/04/17 02:18:20;;;;;;;0.40;0.20;;;6.60;94.50;;;;;;5012103;28;20412;-68
2022/04/17 02:20:49;;;;;;;0.40;0.20;;;6.50;93.80;;;;;;5014688;28;20389;-67
2022/04/17 02:23:15;;;;;;;0.40;0.20;;;6.40;94.10;;;;;;5012954;28;20385;-68
2022/04/17 02:25:41;;;;;;;0.40;0.20;;;6.40;94.60;;;;;;5014250;28;20507;-67
2022/04/17 02:28:08;;;;;;;0.40;0.20;;;6.30;94.50;;;;;;5014519;28;20403;-67
2022/04/17 02:30:34;;;;;;;1.00;0.90;;;6.30;95.70;;;;;;5013614;28;20507;-67
2022/04/17 02:33:00;;;;;;;0.40;0.20;;;6.20;96.70;;;;;;5013357;28;20475;-67
2022/04/17 02:35:26;;;;;;;0.40;0.20;;;6.10;96.20;;;;;;5013636;28;20830;-68
2022/04/17 02:37:51;;;;;;;0.40;0.20;;;6.10;96.40;;;;;;5014338;28;20424;-67
2022/04/17 02:40:17;;;;;;;0.40;0.20;;;6.10;96.80;;;;;;5014568;28;20531;-67
2022/04/17 02:42:43;;;;;;;0.40;0.20;;;6.10;95.60;;;;;;5012226;28;20385;-67
2022/04/17 02:45:09;;;;;;;0.40;0.20;;;6.00;95.60;;;;;;5014096;28;20475;-67
2022/04/17 02:47:43;;;;;;;0.55;0.45;;;6.10;96.00;;;;;;5013403;28;20466;-68
2022/04/17 02:50:17;;;;;;;0.40;0.20;;;6.20;94.70;;;;;;5014094;28;20384;-67
2022/04/17 02:52:43;;;;;;;0.40;0.20;;;6.30;94.70;;;;;;5013168;28;20399;-67
2022/04/17 02:55:10;;;;;;;0.40;0.30;;;6.20;93.70;;;;;;5014436;28;20412;-68
2022/04/17 02:57:36;;;;;;;0.40;0.20;;;6.30;96.00;;;;;;5013785;28;20527;-67
2022/04/17 03:00:04;;;;;;;0.50;0.40;;;6.10;93.80;;;;;;5013298;28;20448;-67
2022/04/17 03:07:58;;;;;;;0.40;0.20;;;6.50;87.00;;;;;;5012925;28;20478;-67
2022/04/17 03:10:24;;;;;;;0.40;0.20;;;6.60;86.50;;;;;;5013427;28;20494;-67
2022/04/17 03:12:50;;;;;;;0.40;0.20;;;6.70;86.30;;;;;;5012950;28;20381;-68
2022/04/17 03:15:16;;;;;;;0.40;0.30;;;6.80;83.30;;;;;;5013559;28;20385;-67
2022/04/17 03:17:41;;;;;;;0.40;0.20;;;6.70;89.90;;;;;;5013457;28;20415;-67
2022/04/17 03:20:07;;;;;;;1.30;0.90;;;6.70;87.30;;;;;;5012574;28;20622;-67
2022/04/17 03:22:33;;;;;;;0.40;0.20;;;6.80;85.00;;;;;;5013535;28;20760;-67
2022/04/17 03:25:04;;;;;;;0.40;0.20;;;6.80;87.20;;;;;;5012672;28;20479;-68
2022/04/17 03:27:30;;;;;;;0.90;0.90;;;6.80;86.50;;;;;;5013401;28;20372;-67
2022/04/17 03:29:56;;;;;;;0.40;0.20;;;6.80;86.70;;;;;;5013023;28;20949;-67
2022/04/17 03:32:22;;;;;;;0.40;0.20;;;6.70;88.90;;;;;;5013037;28;20426;-67
2022/04/17 03:34:48;;;;;;;0.40;0.30;;;6.80;83.90;;;;;;5013358;28;20431;-67
2022/04/17 03:37:16;;;;;;;0.40;0.30;;;6.70;85.20;;;;;;5011046;28;20407;-67
2022/04/17 03:39:44;;;;;;;0.40;0.20;;;6.70;85.10;;;;;;5012932;28;20759;-67
2022/04/17 03:42:10;;;;;;;0.40;0.20;;;6.80;83.80;;;;;;5012235;28;20389;-68
2022/04/17 03:44:36;;;;;;;0.50;0.50;;;6.80;83.50;;;;;;5013106;28;20950;-68
2022/04/17 03:47:02;;;;;;;0.40;0.30;;;6.80;83.90;;;;;;5012921;28;20411;-67
2022/04/17 03:49:31;;;;;;;1.60;1.50;;;6.80;85.70;;;;;;5010793;28;20431;-68
2022/04/17 03:51:57;;;;;;;0.50;0.50;;;6.80;85.30;;;;;;5012652;28;20385;-67
2022/04/17 03:54:23;;;;;;;0.90;0.60;;;6.90;85.70;;;;;;5012134;28;20455;-67
2022/04/17 03:56:49;;;;;;;0.40;0.20;;;6.80;82.50;;;;;;5011475;28;20384;-67
2022/04/17 03:59:15;;;;;;;0.40;0.40;;;6.80;84.70;;;;;;5013042;28;20742;-67
2022/04/17 04:01:40;;;;;;;0.40;0.20;;;6.80;83.00;;;;;;5012125;28;20447;-67
2022/04/17 04:04:06;;;;;;;0.40;0.30;;;6.80;84.50;;;;;;5012554;28;20381;-67
2022/04/17 04:06:35;;;;;;;0.40;0.20;;;6.80;83.30;;;;;;5012062;28;20405;-68
2022/04/17 04:09:01;;;;;;;0.40;0.20;;;6.70;83.70;;;;;;5012544;28;20392;-67
2022/04/17 04:11:27;;;;;;;0.40;0.20;;;6.80;83.50;;;;;;5012129;28;20510;-68
2022/04/17 04:13:54;;;;;;;0.50;0.50;;;6.80;83.80;;;;;;5008892;28;20800;-67
2022/04/17 04:16:20;;;;;;;0.40;0.30;;;6.70;86.80;;;;;;5021228;28;20392;-67
2022/04/17 04:18:45;;;;;;;0.40;0.20;;;6.70;86.40;;;;;;5017455;28;20403;-67
2022/04/17 04:21:11;;;;;;;0.40;0.20;;;6.50;87.50;;;;;;5022030;28;20383;-67
2022/04/17 04:23:38;;;;;;;0.40;0.25;;;6.40;90.00;;;;;;5019206;28;20517;-68
2022/04/17 04:26:04;;;;;;;0.40;0.20;;;6.30;90.00;;;;;;5023374;28;20892;-68
2022/04/17 04:28:34;;;;;;;0.40;0.20;;;6.30;91.90;;;;;;5022129;28;20390;-68
2022/04/17 04:31:05;;;;;;;0.50;0.50;;;6.30;90.00;;;;;;5019367;28;20470;-68
2022/04/17 04:33:31;;;;;;;0.40;0.20;;;6.40;89.40;;;;;;5008651;28;20393;-68
2022/04/17 04:36:01;;;;;;;0.40;0.20;;;6.40;85.10;;;;;;5017199;28;20420;-68
2022/04/17 04:38:28;;;;;;;0.50;0.50;;;6.50;82.90;;;;;;5017250;28;20506;-68
2022/04/17 04:40:54;;;;;;;0.60;0.60;;;6.40;84.10;;;;;;5016156;28;20883;-68
2022/04/17 04:43:20;;;;;;;0.40;0.20;;;6.50;82.50;;;;;;5020438;28;20385;-68
2022/04/17 04:51:15;;;;;;;0.40;0.20;;;6.50;80.70;;;;;;5021602;28;20490;-68
2022/04/17 04:53:41;;;;;;;0.40;0.20;;;6.50;80.00;;;;;;5016878;28;20806;-68
2022/04/17 04:56:07;;;;;;;0.40;0.20;;;6.60;79.90;;;;;;5018807;28;20380;-68
2022/04/17 04:58:34;;;;;;;0.70;0.70;;;6.50;80.50;;;;;;5021840;28;20407;-68
2022/04/17 05:00:59;;;;;;;0.40;0.20;;;6.60;80.60;;;;;;5016571;28;20397;-68
2022/04/17 05:03:26;;;;;;;0.40;0.40;;;6.60;79.20;;;;;;4997602;28;20421;-68
2022/04/17 05:05:52;;;;;;;0.40;0.30;;;6.60;79.80;;;;;;5010247;28;20734;-68
2022/04/17 05:08:21;;;;;;;0.40;0.20;;;6.70;79.50;;;;;;5010110;28;20409;-68
2022/04/17 05:10:47;;;;;;;0.40;0.20;;;6.50;78.50;;;;;;5010677;28;20395;-67
2022/04/17 05:13:13;;;;;;;0.40;0.20;;;6.60;77.20;;;;;;5010145;28;20773;-68
2022/04/17 05:15:39;;;;;;;0.40;0.20;;;6.60;76.80;;;;;;5007178;28;20409;-68
2022/04/17 05:18:06;;;;;;;0.40;0.30;;;6.60;78.30;;;;;;4992684;28;20398;-67
2022/04/17 05:20:34;;;;;;;0.40;0.20;;;6.50;79.20;;;;;;5005112;28;20426;-68
2022/04/17 05:23:15;;;;;;;0.40;0.40;;;6.60;76.70;;;;;;5006301;28;20385;-68
2022/04/17 05:25:42;;;;;;;0.40;0.20;;;6.60;77.50;;;;;;4996401;28;20481;-68
2022/04/17 05:28:08;;;;;;;0.40;0.20;;;6.60;76.30;;;;;;5000155;28;20398;-68
2022/04/17 05:30:33;;;;;;;0.40;0.20;;;6.60;77.00;;;;;;5000430;28;20394;-68
2022/04/17 05:32:59;;;;;;;0.40;0.20;;;6.60;76.10;;;;;;5003717;28;20485;-68
2022/04/17 05:35:25;;;;;;;0.40;0.30;;;6.70;75.20;;;;;;5007248;28;20388;-68
2022/04/17 05:37:50;;;;;;;0.40;0.20;;;6.80;75.90;;;;;;5010988;28;20405;-68
2022/04/17 05:40:16;;;;;;;0.40;0.20;;;6.70;76.10;;;;;;5003607;28;20532;-68
2022/04/17 05:42:42;;;;;;;0.40;0.20;;;6.80;75.60;;;;;;5006867;28;20500;-68
2022/04/17 05:45:08;;;;;;;0.40;0.20;;;6.80;75.30;;;;;;5010420;28;20522;-68
2022/04/17 05:47:34;;;;;;;0.40;0.40;;;6.80;77.00;;;;;;5002347;28;20950;-68
2022/04/17 05:50:00;;;;;;;0.40;0.20;;;7.00;73.90;;;;;;5010574;28;20388;-68
2022/04/17 05:52:26;;;;;;;2.80;0.90;;;7.20;74.00;;;;;;5009858;28;20483;-68
2022/04/17 05:54:52;;;;;;;0.40;0.20;;;7.10;72.40;;;;;;5010503;28;20552;-68
2022/04/17 05:57:18;;;;;;;1.30;0.50;;;7.20;71.40;;;;;;5009761;28;20389;-68
2022/04/17 05:59:44;;;;;;;0.40;0.20;;;7.20;71.30;;;;;;5013147;28;21918;-68
2022/04/17 06:02:13;;;;;;;0.40;0.30;;;7.30;72.10;;;;;;5015858;28;20392;-68
2022/04/17 06:04:39;;;;;;;0.40;0.30;;;7.30;73.30;;;;;;5016939;28;20387;-68
2022/04/17 06:07:04;;;;;;;0.40;0.30;;;7.40;72.50;;;;;;5012137;28;20408;-68
2022/04/17 06:09:30;;;;;;;0.40;0.20;;;7.50;73.70;;;;;;5008194;28;20510;-68
2022/04/17 06:11:56;;;;;;;0.53;0.53;;;7.60;72.10;;;;;;5012169;28;20400;-68
2022/04/17 06:14:21;;;;;;;0.40;0.20;;;7.60;75.60;;;;;;5017217;28;20773;-68
2022/04/17 06:16:47;;;;;;;0.40;0.20;;;7.60;72.40;;;;;;5016909;28;20413;-69
2022/04/17 06:19:13;;;;;;;0.60;0.50;;;7.70;71.80;;;;;;5016208;28;20439;-68
2022/04/17 06:21:40;;;;;;;0.40;0.20;;;7.90;70.50;;;;;;5017175;28;20514;-68
2022/04/17 06:24:06;;;;;;;0.40;0.20;;;7.90;70.10;;;;;;5016263;28;20389;-68
2022/04/17 06:26:33;;;;;;;0.57;0.57;;;7.90;70.80;;;;;;5017356;28;20388;-68
2022/04/17 06:29:05;;;;;;;0.40;0.20;;;8.10;69.90;;;;;;5031539;28;20392;-68
2022/04/17 06:31:32;;;;;;;0.40;0.20;;;8.10;68.80;;;;;;5017006;28;20870;-68
2022/04/17 06:33:57;;;;;;;0.40;0.20;;;8.20;67.70;;;;;;5016950;28;20783;-69
2022/04/17 06:36:23;;;;;;;0.40;0.20;;;8.30;67.90;;;;;;5016618;28;20396;-68
2022/04/17 06:38:49;;;;;;;0.40;0.30;;;8.30;73.30;;;;;;5017095;28;20874;-68
2022/04/17 06:41:15;;;;;;;0.40;0.20;;;8.30;69.30;;;;;;5016322;28;20389;-68
2022/04/17 06:43:41;;;;;;;0.40;0.20;;;8.50;68.90;;;;;;5017207;28;20784;-68
2022/04/17 06:46:06;;;;;;;1.20;1.10;;;8.60;66.80;;;;;;5016653;28;20387;-68
2022/04/17 06:48:32;;;;;;;0.40;0.20;;;8.70;66.70;;;;;;5015514;28;20424;-68
2022/04/17 06:50:58;;;;;;;0.40;0.20;;;8.70;67.10;;;;;;5017231;28;20737;-68
2022/04/17 06:53:24;;;;;;;0.40;0.30;;;8.80;66.50;;;;;;5016323;28;20387;-68
2022/04/17 06:55:52;;;;;;;0.40;0.20;;;8.90;63.70;;;;;;5016737;28;20392;-68
2022/04/17 06:58:18;;;;;;;0.40;0.20;;;9.00;63.50;;;;;;5016279;28;20772;-69
2022/04/17 07:00:45;;;;;;;0.40;0.30;;;9.10;60.80;;;;;;5017070;28;20385;-68
2022/04/17 07:03:11;;;;;;;0.50;0.50;;;9.10;66.00;;;;;;5017040;28;20392;-68
2022/04/17 07:05:36;;;;;;;0.40;0.25;;;9.20;63.60;;;;;;5012097;28;20388;-69
2022/04/17 07:08:05;;;;;;;0.40;0.20;;;9.30;62.30;;;;;;5013296;28;20401;-69
2022/04/17 07:10:32;;;;;;;0.40;0.20;;;9.40;62.10;;;;;;5012529;28;20391;-70
2022/04/17 07:12:58;;;;;;;0.40;0.20;;;9.50;59.70;;;;;;5012071;28;20918;-69
2022/04/17 07:15:24;;;;;;;0.40;0.20;;;9.60;60.60;;;;;;5000662;28;20401;-68
2022/04/17 07:17:50;;;;;;;0.40;0.20;;;9.60;59.60;;;;;;5004865;28;20400;-69
2022/04/17 07:20:17;;;;;;;0.40;0.20;;;9.60;59.80;;;;;;5006708;28;20441;-69
2022/04/17 07:22:44;;;;;;;0.40;0.20;;;9.60;59.80;;;;;;5001963;28;20470;-70
2022/04/17 07:25:11;;;;;;;0.40;0.20;;;9.60;61.10;;;;;;5016462;28;20480;-69
2022/04/17 07:27:43;;;;;;;0.40;0.20;;;9.80;62.70;;;;;;5013024;28;20793;-70
2022/04/17 07:30:14;;;;;;;0.40;0.30;;;9.90;60.40;;;;;;5012376;28;20396;-70
2022/04/17 07:32:42;;;;;;;0.40;0.30;;;9.90;60.00;;;;;;5014705;28;20420;-70
2022/04/17 07:35:10;;;;;;;0.40;0.30;;;9.90;58.80;;;;;;5012243;28;20464;-69
2022/04/17 07:37:36;;;;;;;0.40;0.20;;;10.00;57.50;;;;;;5012003;28;20409;-69
2022/04/17 07:40:14;;;;;;;0.40;0.30;;;10.10;57.80;;;;;;5013675;28;20426;-69
2022/04/17 07:42:40;;;;;;;0.40;0.30;;;10.20;57.60;;;;;;5010720;28;20783;-69
2022/04/17 07:45:06;;;;;;;0.40;0.20;;;10.30;56.80;;;;;;5011082;28;20932;-69
2022/04/17 07:47:32;;;;;;;0.40;0.20;;;10.30;56.40;;;;;;5011597;28;20921;-69
2022/04/17 07:49:59;;;;;;;0.40;0.20;;;10.40;56.40;;;;;;5009939;28;20484;-69
2022/04/17 07:52:25;;;;;;;0.40;0.30;;;10.40;56.60;;;;;;5011784;28;20400;-69
2022/04/17 07:54:51;;;;;;;0.40;0.30;;;10.50;56.60;;;;;;5012169;28;20385;-68
2022/04/17 07:57:16;;;;;;;0.40;0.20;;;10.50;57.70;;;;;;5014158;28;20390;-69
2022/04/17 07:59:42;;;;;;;0.40;0.30;;;10.60;55.80;;;;;;5011446;28;20413;-69
2022/04/17 08:02:21;;;;;;;0.40;0.20;;;10.60;56.00;;;;;;5012969;28;20392;-69
2022/04/17 08:04:51;;;;;;;0.40;0.20;;;10.70;53.20;;;;;;5013359;28;20385;-69
2022/04/17 08:07:17;;;;;;;0.40;0.30;;;10.80;53.30;;;;;;5023482;28;20455;-69
2022/04/17 08:09:43;;;;;;;0.40;0.30;;;11.00;53.40;;;;;;5012487;28;20438;-69
2022/04/17 08:12:09;;;;;;;0.40;0.30;;;11.00;52.00;;;;;;5011178;28;20385;-69
2022/04/17 08:14:34;;;;;;;0.40;0.20;;;11.00;53.90;;;;;;5012446;28;20404;-69
2022/04/17 08:17:00;;;;;;;0.40;0.30;;;11.00;53.80;;;;;;5010464;28;20397;-68
2022/04/17 08:19:26;;;;;;;1.50;1.40;;;11.00;53.50;;;;;;5010924;28;20420;-68
2022/04/17 08:21:51;;;;;;;0.40;0.20;;;11.10;52.40;;;;;;5011533;28;20427;-68
2022/04/17 08:24:19;;;;;;;0.40;0.40;;;11.10;50.00;;;;;;5011431;28;20455;-69
2022/04/17 08:26:44;;;;;;;0.40;0.20;;;11.20;51.10;;;;;;5011542;28;20408;-66
2022/04/17 08:29:11;;;;;;;0.40;0.30;;;11.30;48.70;;;;;;5012092;28;20377;-68
2022/04/17 08:31:36;;;;;;;0.40;0.20;;;11.40;47.20;;;;;;5018718;28;20423;-68
2022/04/17 08:34:03;;;;;;;0.40;0.20;;;11.50;50.50;;;;;;5031926;28;20461;-69
2022/04/17 08:36:28;;;;;;;0.40;0.20;;;11.60;48.90;;;;;;5013924;28;20497;-69
2022/04/17 08:38:54;;;;;;;0.40;0.20;;;11.80;50.40;;;;;;5009675;28;20504;-69
2022/04/17 08:41:20;;;;;;;0.40;0.30;;;11.90;49.90;;;;;;5011528;28;20463;-68
2022/04/17 08:43:46;;;;;;;0.40;0.30;;;11.80;47.30;;;;;;5010818;28;20393;-68
2022/04/17 08:46:12;;;;;;;0.40;0.20;;;11.90;45.80;;;;;;5011488;28;20777;-68
2022/04/17 08:48:38;;;;;;;0.40;0.30;;;12.00;48.50;;;;;;5009931;28;20482;-69
2022/04/17 08:51:07;;;;;;;0.40;0.30;;;12.20;46.40;;;;;;5011038;28;20519;-68
2022/04/17 08:53:35;;;;;;;0.40;0.20;;;12.30;45.90;;;;;;5011352;28;20397;-69
2022/04/17 08:56:00;;;;;;;0.40;0.20;;;12.40;45.00;;;;;;5011183;28;20412;-68
2022/04/17 08:58:26;;;;;;;0.40;0.20;;;12.40;45.20;;;;;;5011752;28;20401;-68
2022/04/17 09:00:52;;;;;;;0.40;0.20;;;12.50;45.40;;;;;;5010674;28;20964;-68
2022/04/17 09:03:17;;;;;;;0.40;0.20;;;12.50;44.70;;;;;;5010982;28;20873;-68
2022/04/17 09:05:44;;;;;;;0.40;0.20;;;12.50;45.20;;;;;;5010801;28;20451;-69
2022/04/17 09:08:17;;;;;;;0.40;0.20;;;12.70;45.30;;;;;;5011377;28;20841;-69
2022/04/17 09:10:58;;;;;;;0.40;0.40;;;12.60;43.60;;;;;;5011486;28;20389;-68
2022/04/17 09:13:33;;;;;;;0.40;0.30;;;12.70;44.50;;;;;;5011743;28;20392;-66
2022/04/17 09:16:01;;;;;;;0.40;0.30;;;12.90;44.00;;;;;;5010490;28;20758;-67
2022/04/17 09:18:32;;;;;;;0.40;0.20;;;13.30;44.90;;;;;;5011430;28;20444;-67
2022/04/17 09:21:01;;;;;;;1.10;0.60;;;13.30;45.50;;;;;;5009797;28;20920;-68
2022/04/17 09:23:35;;;;;;;0.40;0.30;;;13.40;43.40;;;;;;5011248;28;20391;-67
2022/04/17 09:26:01;;;;;;;0.40;0.20;;;13.50;42.80;;;;;;5010216;28;20401;-68
2022/04/17 09:28:35;;;;;;;0.40;0.20;;;13.70;44.50;;;;;;5010863;28;20389;-67
2022/04/17 09:31:01;;;;;;;1.20;1.00;;;13.80;45.20;;;;;;5013174;28;20411;-68
2022/04/17 09:33:39;;;;;;;0.40;0.28;;;14.20;48.40;;;;;;5030710;28;20880;-67
2022/04/17 09:36:05;;;;;;;0.40;0.20;;;14.10;44.90;;;;;;5008575;28;20799;-68
2022/04/17 09:38:33;;;;;;;3.30;0.80;;;14.10;47.70;;;;;;4999846;28;20425;-67
2022/04/17 09:41:10;;;;;;;0.40;0.20;;;13.90;45.90;;;;;;5007078;28;20399;-67
2022/04/17 09:43:35;;;;;;;0.40;0.30;;;14.10;49.00;;;;;;5009059;28;20415;-68
2022/04/17 09:46:06;;;;;;;0.40;0.20;;;14.30;48.50;;;;;;5010958;28;20381;-68
2022/04/17 09:48:40;;;;;;;0.40;0.20;;;14.10;47.70;;;;;;5007933;28;20882;-68
2022/04/17 09:51:31;;;;;;;0.40;0.30;;;14.30;48.50;;;;;;4994226;28;20400;-68
2022/04/17 09:54:05;;;;;;;0.40;0.30;;;14.20;47.30;;;;;;5002480;28;20392;-67
2022/04/17 09:56:41;;;;;;;0.40;0.20;;;14.10;46.20;;;;;;5001990;28;20416;-68
2022/04/17 09:59:17;;;;;;;0.40;0.20;;;14.10;46.80;;;;;;5002107;28;20418;-67
2022/04/17 10:02:01;;;;;;;0.40;0.30;;;14.20;47.20;;;;;;5002859;28;20900;-67
2022/04/17 10:04:27;;;;;;;0.40;0.20;;;14.40;45.00;;;;;;5009231;28;20380;-68
2022/04/17 10:06:59;;;;;;;0.40;0.20;;;14.40;45.40;;;;;;5008895;28;20877;-67
2022/04/17 10:09:25;;;;;;;0.40;0.20;;;14.60;47.30;;;;;;4998259;28;20430;-68
2022/04/17 10:11:52;;;;;;;0.40;0.30;;;14.60;44.70;;;;;;5009302;28;20750;-67
2022/04/17 10:14:18;;;;;;;0.40;0.20;;;15.00;48.80;;;;;;5009902;28;20780;-67
2022/04/17 10:16:48;;;;;;;0.40;0.20;;;15.50;44.70;;;;;;5017606;28;20526;-67
2022/04/17 10:19:24;;;;;;;0.40;0.20;;;15.80;39.80;;;;;;5009855;28;20576;-67
2022/04/17 10:21:51;;;;;;;0.40;0.30;;;16.00;39.00;;;;;;4996564;28;20453;-67
2022/04/17 10:24:18;;;;;;;0.40;0.20;;;16.10;35.40;;;;;;4992496;28;20467;-68
2022/04/17 10:26:52;;;;;;;0.40;0.20;;;16.30;37.60;;;;;;5009389;28;20385;-68
2022/04/17 10:29:23;;;;;;;0.40;0.30;;;16.50;39.10;;;;;;4996876;28;20445;-68
2022/04/17 10:32:03;;;;;;;0.60;0.50;;;16.80;38.30;;;;;;5011988;28;21016;-68
2022/04/17 10:35:08;;;;;;;0.40;0.40;;;16.80;37.50;;;;;;4992499;28;20743;-70
2022/04/17 10:37:53;;;;;;;0.40;0.30;;;17.00;36.10;;;;;;4991483;28;20406;-69
2022/04/17 10:40:19;;;;;;;0.40;0.20;;;17.10;33.60;;;;;;4994912;28;21910;-69
2022/04/17 10:42:56;;;;;;;0.40;0.20;;;17.10;33.00;;;;;;5007851;28;20416;-70
2022/04/17 10:45:22;;;;;;;0.50;0.40;;;17.20;32.60;;;;;;5008432;28;20396;-70
2022/04/17 10:48:27;;;;;;;0.40;0.20;;;17.30;32.70;;;;;;5004672;28;20458;-69
2022/04/17 10:50:53;;;;;;;0.40;0.30;;;17.50;32.40;;;;;;4996172;28;20412;-70
2022/04/17 10:53:29;;;;;;;0.40;0.20;;;17.60;33.60;;;;;;5005917;28;20400;-69
2022/04/17 10:56:03;;;;;;;0.40;0.30;;;17.60;32.50;;;;;;5011526;28;20710;-70
2022/04/17 10:58:53;;;;;;;0.40;0.20;;;17.80;36.90;;;;;;5007532;28;20602;-69
2022/04/17 11:01:41;;;;;;;0.40;0.30;;;17.80;31.60;;;;;;5009722;28;20388;-70
2022/04/17 11:04:24;;;;;;;0.40;0.20;;;17.60;30.40;;;;;;5010013;28;20399;-69
2022/04/17 11:07:05;;;;;;;0.40;0.20;;;17.80;30.00;;;;;;5005533;28;20418;-70
2022/04/17 11:09:36;;;;;;;0.40;0.20;;;17.90;30.00;;;;;;5013119;28;20401;-69
2022/04/17 11:12:10;;;;;;;0.40;0.30;;;18.10;31.20;;;;;;5007210;28;20392;-69
2022/04/17 11:14:38;;;;;;;0.40;0.20;;;18.30;30.90;;;;;;5013400;28;20396;-69
2022/04/17 11:17:08;;;;;;;0.40;0.20;;;18.30;29.70;;;;;;5014957;28;20383;-69
2022/04/17 11:19:39;;;;;;;0.40;0.20;;;18.40;29.50;;;;;;5022955;28;20769;-69
2022/04/17 11:22:07;;;;;;;0.40;0.30;;;18.60;28.60;;;;;;5020636;28;20390;-70
2022/04/17 11:24:54;;;;;;;0.40;0.30;;;18.90;29.40;;;;;;5019490;28;20960;-70
2022/04/17 11:27:31;;;;;;;0.40;0.20;;;19.50;29.40;;;;;;5009514;28;20409;-70
2022/04/17 11:29:58;;;;;;;0.40;0.20;;;19.90;29.20;;;;;;5023848;28;20400;-70
2022/04/17 11:32:27;;;;;;;0.40;0.30;;;20.10;29.20;;;;;;5025669;28;20483;-69
2022/04/17 11:34:55;;;;;;;0.40;0.20;;;19.90;26.40;;;;;;5020535;28;20424;-69
2022/04/17 11:37:28;;;;;;;0.40;0.20;;;20.70;27.20;;;;;;5022358;28;20394;-67
2022/04/17 11:39:56;;;;;;;0.40;0.30;;;21.50;27.40;;;;;;5023299;28;20419;-68
2022/04/17 11:42:29;;;;;;;0.40;0.20;;;22.50;27.40;;;;;;5020789;28;20453;-69
2022/04/17 11:45:00;;;;;;;0.40;0.20;;;21.30;22.80;;;;;;5021575;28;20392;-69
2022/04/17 11:47:26;;;;;;;0.40;0.30;;;22.00;23.60;;;;;;5021771;28;20380;-69
2022/04/17 11:49:51;;;;;;;0.40;0.20;;;22.30;23.70;;;;;;5020537;28;20394;-69
2022/04/17 11:52:19;;;;;;;0.40;0.20;;;22.50;24.00;;;;;;5022885;28;20381;-69
2022/04/17 11:54:46;;;;;;;0.40;0.30;;;21.70;22.90;;;;;;5010499;28;20819;-69
2022/04/17 11:57:13;;;;;;;0.40;0.25;;;23.10;24.20;;;;;;5022351;28;20388;-68
2022/04/17 11:59:48;;;;;;;0.40;0.20;;;23.40;25.20;;;;;;5019077;28;20909;-69
2022/04/17 12:02:36;;;;;;;0.40;0.30;;;22.20;23.30;;;;;;5013513;28;20538;-69
2022/04/17 12:05:10;;;;;;;0.40;0.30;;;21.80;22.80;;;;;;5019820;28;20393;-67
2022/04/17 12:07:36;;;;;;;0.40;0.20;;;22.10;23.90;;;;;;5012689;28;20412;-67
2022/04/17 12:10:04;;;;;;;0.40;0.28;;;23.00;23.10;;;;;;5017717;28;20796;-67
2022/04/17 12:12:35;;;;;;;0.40;0.30;;;22.90;21.90;;;;;;5012449;28;20383;-68
2022/04/17 12:15:05;;;;;;;0.40;0.20;;;22.60;21.30;;;;;;5021727;28;20433;-66
2022/04/17 12:17:32;;;;;;;0.40;0.20;;;23.00;23.90;;;;;;5022391;28;20387;-67
2022/04/17 12:19:59;;;;;;;0.40;0.20;;;22.40;22.60;;;;;;5022057;28;20431;-67
2022/04/17 12:22:25;;;;;;;0.40;0.20;;;23.80;24.30;;;;;;5018549;28;20893;-68
2022/04/17 12:24:51;;;;;;;0.40;0.20;;;23.60;20.40;;;;;;5004852;28;20475;-69
2022/04/17 12:27:20;;;;;;;0.40;0.30;;;23.50;21.60;;;;;;5010860;28;21876;-68
2022/04/17 12:29:53;;;;;;;0.40;0.20;;;24.00;20.30;;;;;;5018018;28;20424;-68
2022/04/17 12:32:23;;;;;;;0.40;0.20;;;24.00;19.40;;;;;;5018145;28;20392;-68
2022/04/17 12:35:03;;;;;;;0.40;0.20;;;23.60;21.00;;;;;;5017263;28;20511;-68
2022/04/17 12:37:34;;;;;;;0.40;0.20;;;23.30;20.10;;;;;;5019795;28;20537;-67
2022/04/17 12:40:13;;;;;;;0.40;0.20;;;23.00;19.90;;;;;;5018361;28;20471;-67
2022/04/17 12:42:40;;;;;;;0.40;0.28;;;23.30;21.50;;;;;;5016699;28;20419;-68
2022/04/17 12:45:10;;;;;;;0.40;0.20;;;23.70;22.40;;;;;;5019510;28;20416;-67
2022/04/17 12:47:38;;;;;;;0.40;0.20;;;23.70;21.60;;;;;;5017801;28;20416;-67
2022/04/17 12:50:09;;;;;;;0.40;0.20;;;23.40;19.80;;;;;;5020516;28;20451;-67
2022/04/17 12:52:35;;;;;;;0.40;0.20;;;23.90;21.30;;;;;;5022156;28;20391;-67
2022/04/17 12:55:11;;;;;;;0.40;0.20;;;23.90;20.80;;;;;;5020268;28;20387;-67
2022/04/17 12:57:38;;;;;;;0.40;0.20;;;24.10;21.00;;;;;;5017209;28;20851;-67
2022/04/17 13:00:17;;;;;;;0.40;0.20;;;23.30;19.30;;;;;;5020098;28;20401;-67
2022/04/17 13:02:44;;;;;;;0.40;0.30;;;23.50;19.20;;;;;;5017291;28;20387;-68
2022/04/17 13:05:21;;;;;;;0.40;0.20;;;22.80;18.50;;;;;;5019641;28;20418;-67
2022/04/17 13:07:46;;;;;;;0.40;0.20;;;23.70;21.50;;;;;;5016392;28;20409;-67
2022/04/17 13:10:12;;;;;;;0.40;0.30;;;23.90;19.40;;;;;;5017900;28;20476;-67
2022/04/17 13:12:47;;;;;;;0.40;0.30;;;22.90;18.50;;;;;;5019059;28;20462;-67